Time;durP1;ratioP1;P1;durP2;ratioP2;P2;SDS_P1;SDS_P2;PMS_P1;PMS_P2;Temp;Humidity;BMP_temperature;BMP_pressure;BME280_temperature;BME280_humidity;BME280_pressure;Samples;Min_cycle;Max_cycle;Signal;HPM_P1;HPM_P2
2021/12/04 00:01:56;;;;;;;22.00;13.13;;;4.80;99.90;;;;;;5053698;28;20048;-70
2021/12/04 00:04:27;;;;;;;22.40;12.75;;;4.10;99.90;;;;;;5054764;28;20041;-69
2021/12/04 00:06:53;;;;;;;23.33;13.50;;;4.70;99.90;;;;;;5054601;28;20456;-70
2021/12/04 00:09:21;;;;;;;21.05;13.27;;;5.80;99.90;;;;;;5054769;28;20055;-68
2021/12/04 00:11:56;;;;;;;24.80;14.57;;;4.10;99.90;;;;;;5053728;28;20052;-68
2021/12/04 00:14:22;;;;;;;20.90;13.40;;;4.70;99.90;;;;;;5054692;28;20500;-69
2021/12/04 00:16:48;;;;;;;21.65;12.60;;;4.10;99.90;;;;;;5053516;28;20041;-69
2021/12/04 00:19:14;;;;;;;21.50;14.00;;;4.10;99.90;;;;;;5053269;28;20081;-69
2021/12/04 00:21:40;;;;;;;28.55;14.93;;;4.10;99.90;;;;;;5053405;28;20130;-69
2021/12/04 00:24:05;;;;;;;22.92;13.25;;;5.60;99.90;;;;;;5054572;28;20045;-69
2021/12/04 00:26:31;;;;;;;22.95;13.07;;;5.00;99.90;;;;;;5054433;28;20041;-70
2021/12/04 00:28:57;;;;;;;28.67;15.45;;;5.30;99.90;;;;;;5054219;28;20052;-69
2021/12/04 00:31:22;;;;;;;26.67;14.30;;;4.10;99.90;;;;;;5053221;28;20045;-69
2021/12/04 00:33:49;;;;;;;27.10;13.90;;;4.10;99.90;;;;;;5054214;28;20431;-70
2021/12/04 00:36:45;;;;;;;28.15;15.25;;;4.10;99.90;;;;;;5036592;28;20057;-68
2021/12/04 00:50:09;;;;;;;31.65;15.18;;;4.10;99.90;;;;;;5053689;28;20063;-68
2021/12/04 00:52:35;;;;;;;27.15;16.67;;;5.30;99.90;;;;;;5053809;28;20132;-70
2021/12/04 00:55:03;;;;;;;35.47;17.88;;;5.30;99.90;;;;;;5053630;28;20183;-69
2021/12/04 00:57:28;;;;;;;26.33;14.82;;;4.10;99.90;;;;;;5052666;28;20132;-69
2021/12/04 00:59:54;;;;;;;23.52;14.77;;;5.40;99.90;;;;;;5052874;28;20144;-70
2021/12/04 01:02:21;;;;;;;24.90;14.73;;;4.10;99.90;;;;;;5053776;28;20139;-69
2021/12/04 01:04:47;;;;;;;27.73;15.05;;;4.10;99.90;;;;;;5052463;28;20771;-69
2021/12/04 01:07:13;;;;;;;;;;;4.10;99.90;;;;;;5052529;28;20041;-68
2021/12/04 01:09:39;;;;;;;29.38;15.50;;;5.20;99.90;;;;;;5052979;28;19921;-69
2021/12/04 01:12:05;;;;;;;30.00;16.27;;;4.10;99.90;;;;;;5053380;28;20045;-69
2021/12/04 01:14:33;;;;;;;27.65;13.90;;;4.10;99.90;;;;;;5053880;28;20041;-70
2021/12/04 01:16:59;;;;;;;28.77;15.65;;;5.70;99.90;;;;;;5052275;28;20465;-70
2021/12/04 01:19:25;;;;;;;27.75;15.00;;;4.50;99.90;;;;;;5053403;28;20056;-70
2021/12/04 01:21:53;;;;;;;30.35;16.80;;;4.90;99.90;;;;;;5053362;28;20063;-69
2021/12/04 01:24:20;;;;;;;33.60;17.27;;;4.30;99.90;;;;;;5052109;28;20041;-68
2021/12/04 01:26:47;;;;;;;30.52;16.88;;;4.10;99.90;;;;;;5053058;28;20048;-69
2021/12/04 01:29:14;;;;;;;28.35;17.33;;;4.10;99.90;;;;;;5053362;28;20053;-69
2021/12/04 01:31:41;;;;;;;31.45;17.42;;;4.90;99.90;;;;;;5053392;28;20052;-69
2021/12/04 01:34:06;;;;;;;;;;;4.10;99.90;;;;;;5053551;28;20408;-69
2021/12/04 01:36:33;;;;;;;30.23;16.17;;;4.10;99.90;;;;;;5035586;28;19921;-69
2021/12/04 01:38:59;;;;;;;28.70;17.27;;;4.10;99.90;;;;;;5035653;28;20437;-69
2021/12/04 01:41:26;;;;;;;29.77;14.93;;;4.10;99.90;;;;;;5051848;28;20056;-69
2021/12/04 01:43:52;;;;;;;;;;;4.10;99.90;;;;;;5053592;28;20045;-70
2021/12/04 01:46:18;;;;;;;29.52;16.15;;;4.10;99.90;;;;;;5052856;28;19921;-69
2021/12/04 01:48:44;;;;;;;26.63;16.15;;;5.20;99.90;;;;;;5051895;28;20099;-70
2021/12/04 01:51:10;;;;;;;31.20;15.40;;;4.10;99.90;;;;;;5052798;28;20065;-70
2021/12/04 01:53:36;;;;;;;33.88;17.65;;;4.60;99.90;;;;;;5052816;28;20500;-68
2021/12/04 01:56:03;;;;;;;36.70;17.63;;;6.10;99.90;;;;;;5052728;28;20122;-70
2021/12/04 01:58:29;;;;;;;32.33;17.10;;;4.10;99.90;;;;;;5051976;28;20045;-70
2021/12/04 02:00:55;;;;;;;;;;;5.20;99.90;;;;;;5053603;28;20132;-69
2021/12/04 02:03:21;;;;;;;25.90;16.88;;;4.10;99.90;;;;;;5052920;28;19976;-69
2021/12/04 02:05:48;;;;;;;35.55;17.40;;;4.90;99.90;;;;;;5052699;28;20055;-69
2021/12/04 02:08:19;;;;;;;35.45;17.65;;;4.10;99.90;;;;;;5052585;28;20041;-69
2021/12/04 02:10:47;;;;;;;33.00;17.25;;;5.30;99.90;;;;;;5051698;28;20121;-70
2021/12/04 02:13:15;;;;;;;31.65;15.80;;;4.80;99.90;;;;;;5035186;28;20114;-69
2021/12/04 02:15:41;;;;;;;37.72;18.75;;;5.00;99.90;;;;;;5051761;28;20049;-69
2021/12/04 02:18:08;;;;;;;;;;;4.10;99.90;;;;;;5053179;28;20408;-70
2021/12/04 02:20:34;;;;;;;30.70;16.88;;;4.40;99.90;;;;;;5055956;28;19920;-68
2021/12/04 02:23:04;;;;;;;32.40;17.77;;;4.10;99.90;;;;;;5056953;28;20135;-69
2021/12/04 02:25:30;;;;;;;33.05;17.05;;;4.10;99.90;;;;;;5056745;28;20492;-70
2021/12/04 02:27:58;;;;;;;34.67;15.65;;;4.50;99.90;;;;;;5057023;28;20052;-70
2021/12/04 02:30:28;;;;;;;34.60;17.70;;;5.40;99.90;;;;;;5056980;28;20051;-69
2021/12/04 02:32:54;;;;;;;34.85;18.73;;;5.10;99.90;;;;;;5056880;28;20130;-70
2021/12/04 02:35:20;;;;;;;29.98;16.35;;;4.80;99.90;;;;;;5039423;28;20053;-69
2021/12/04 02:37:47;;;;;;;33.88;17.73;;;4.60;99.90;;;;;;5056762;28;20131;-70
2021/12/04 02:40:16;;;;;;;27.25;15.95;;;4.10;99.90;;;;;;5056568;28;20092;-68
2021/12/04 02:42:44;;;;;;;30.30;15.85;;;4.20;99.90;;;;;;5056828;28;20437;-70
2021/12/04 02:45:10;;;;;;;32.38;17.25;;;4.40;99.90;;;;;;5055704;28;20092;-69
2021/12/04 02:47:36;;;;;;;26.92;14.63;;;4.10;99.90;;;;;;5056429;28;20087;-70
2021/12/04 02:50:05;;;;;;;28.88;15.98;;;4.10;99.90;;;;;;5056454;28;20048;-69
2021/12/04 02:52:31;;;;;;;34.47;15.18;;;4.00;99.90;;;;;;5056468;28;20045;-70
2021/12/04 02:54:57;;;;;;;28.77;15.70;;;5.80;99.90;;;;;;5056217;28;20500;-70
2021/12/04 02:57:23;;;;;;;23.48;14.63;;;5.50;99.90;;;;;;5056553;28;20060;-69
2021/12/04 02:59:50;;;;;;;28.95;16.60;;;4.10;99.90;;;;;;5056396;28;20049;-70
2021/12/04 03:02:21;;;;;;;27.27;14.45;;;4.10;99.90;;;;;;5056263;28;20492;-69
2021/12/04 03:04:56;;;;;;;22.40;13.10;;;4.80;99.90;;;;;;5056245;28;20068;-69
2021/12/04 03:07:22;;;;;;;27.63;15.07;;;4.00;99.90;;;;;;5054709;28;20051;-70
2021/12/04 03:09:49;;;;;;;24.77;12.77;;;4.40;99.90;;;;;;5056007;28;20049;-69
2021/12/04 03:12:18;;;;;;;23.73;14.60;;;4.10;99.90;;;;;;5055276;28;20048;-68
2021/12/04 03:14:44;;;;;;;25.20;13.50;;;4.20;99.90;;;;;;5056007;28;20064;-69
2021/12/04 03:17:10;;;;;;;26.00;13.75;;;4.60;99.90;;;;;;5056111;28;20369;-70
2021/12/04 03:19:38;;;;;;;22.30;11.82;;;4.90;99.90;;;;;;5054782;28;20079;-68
2021/12/04 03:22:06;;;;;;;22.58;12.02;;;4.10;99.90;;;;;;5054880;28;20055;-69
2021/12/04 03:24:35;;;;;;;21.20;11.57;;;5.10;99.90;;;;;;5054717;28;20056;-70
2021/12/04 03:27:00;;;;;;;18.27;11.25;;;4.10;99.90;;;;;;5055865;28;20052;-70
2021/12/04 03:29:28;;;;;;;19.95;11.65;;;4.10;99.90;;;;;;5054905;28;20053;-69
2021/12/04 03:42:40;;;;;;;18.05;10.70;;;4.30;99.90;;;;;;5033462;28;20429;-69
2021/12/04 03:45:08;;;;;;;18.15;11.05;;;4.20;99.90;;;;;;5033093;28;20501;-69
2021/12/04 03:47:37;;;;;;;18.55;11.20;;;4.00;99.90;;;;;;5016648;28;20128;-70
2021/12/04 03:50:03;;;;;;;17.85;10.35;;;4.00;99.90;;;;;;5017169;28;20069;-70
2021/12/04 03:52:29;;;;;;;17.58;10.52;;;4.10;99.90;;;;;;5033242;28;20050;-70
2021/12/04 03:54:54;;;;;;;20.90;12.07;;;4.00;99.90;;;;;;5016769;28;20057;-69
2021/12/04 03:57:20;;;;;;;19.77;12.13;;;5.00;99.90;;;;;;5016894;28;20049;-69
2021/12/04 03:59:47;;;;;;;21.77;11.83;;;4.50;99.90;;;;;;5033096;28;20512;-70
2021/12/04 04:02:16;;;;;;;23.23;12.07;;;4.90;99.90;;;;;;5016505;28;20323;-69
2021/12/04 04:04:41;;;;;;;22.92;13.02;;;5.70;99.90;;;;;;5033078;28;20496;-69
2021/12/04 04:07:07;;;;;;;20.83;11.95;;;4.20;99.90;;;;;;5032893;28;20092;-69
2021/12/04 04:09:33;;;;;;;21.80;11.63;;;4.00;99.90;;;;;;5032861;28;20045;-68
2021/12/04 04:12:00;;;;;;;23.20;12.02;;;4.00;99.90;;;;;;5038791;28;20087;-70
2021/12/04 04:14:26;;;;;;;22.13;11.45;;;5.30;99.90;;;;;;5053671;28;20053;-68
2021/12/04 04:16:54;;;;;;;17.70;10.55;;;4.90;99.90;;;;;;5053903;28;20053;-69
2021/12/04 04:19:21;;;;;;;19.27;11.30;;;4.60;99.90;;;;;;5053945;28;20057;-69
2021/12/04 04:21:47;;;;;;;17.98;10.73;;;4.70;99.90;;;;;;5054838;28;20040;-70
2021/12/04 04:24:16;;;;;;;22.48;11.32;;;4.00;99.90;;;;;;5053861;28;20129;-69
2021/12/04 04:26:43;;;;;;;17.90;11.15;;;4.50;99.90;;;;;;5054642;28;20056;-69
2021/12/04 04:29:10;;;;;;;19.15;10.65;;;4.00;99.90;;;;;;5054604;28;20048;-69
2021/12/04 04:31:45;;;;;;;17.55;11.70;;;5.60;99.90;;;;;;5054460;28;20531;-69
2021/12/04 04:34:11;;;;;;;19.90;10.77;;;4.00;99.90;;;;;;5054662;28;20047;-69
2021/12/04 05:13:40;;;;;;;20.98;10.65;;;4.10;99.90;;;;;;5053773;28;20049;-70
2021/12/04 05:16:17;;;;;;;16.13;9.30;;;4.00;99.90;;;;;;5053899;28;20415;-70
2021/12/04 05:18:56;;;;;;;;;;;3.90;99.90;;;;;;5054024;28;20396;-68
2021/12/04 05:21:21;;;;;;;15.10;8.25;;;4.00;99.90;;;;;;5053697;28;19966;-69
2021/12/04 05:23:51;;;;;;;20.55;10.55;;;4.00;99.90;;;;;;5053531;28;20045;-70
2021/12/04 05:26:25;;;;;;;19.10;10.18;;;5.20;99.90;;;;;;5052645;28;20140;-69
2021/12/04 05:28:51;;;;;;;16.70;9.85;;;4.00;99.90;;;;;;5052634;28;20052;-69
2021/12/04 05:31:17;;;;;;;17.02;10.07;;;3.90;99.90;;;;;;5053707;28;20040;-68
2021/12/04 05:33:44;;;;;;;17.10;9.48;;;4.00;99.90;;;;;;5053489;28;20051;-69
2021/12/04 05:36:10;;;;;;;;;;;4.00;99.90;;;;;;5053884;28;20415;-69
2021/12/04 05:38:37;;;;;;;18.70;9.85;;;4.60;99.90;;;;;;5053249;28;19947;-68
2021/12/04 05:41:03;;;;;;;18.67;9.48;;;3.90;99.90;;;;;;5052600;28;20476;-68
2021/12/04 05:43:29;;;;;;;21.63;11.10;;;4.40;99.90;;;;;;5052569;28;20044;-71
2021/12/04 05:46:10;;;;;;;14.77;8.50;;;4.70;99.90;;;;;;5053350;28;20053;-69
2021/12/04 05:53:54;;;;;;;22.75;10.15;;;4.20;99.90;;;;;;5052827;28;20480;-70
2021/12/04 05:56:20;;;;;;;17.50;10.40;;;3.90;99.90;;;;;;5053267;28;20084;-69
2021/12/04 05:58:48;;;;;;;14.88;8.80;;;5.50;99.90;;;;;;5053215;28;20048;-70
2021/12/04 06:01:16;;;;;;;17.23;9.45;;;3.90;99.90;;;;;;5053188;28;20056;-69
2021/12/04 06:03:43;;;;;;;17.33;10.20;;;3.90;99.90;;;;;;5052972;28;20048;-68
2021/12/04 06:06:09;;;;;;;19.92;10.23;;;3.90;99.90;;;;;;5052055;28;20053;-69
2021/12/04 06:08:34;;;;;;;17.65;9.98;;;3.90;99.90;;;;;;5053097;28;20045;-69
2021/12/04 06:11:00;;;;;;;16.52;9.63;;;3.90;99.90;;;;;;5053135;28;20138;-70
2021/12/04 06:13:27;;;;;;;20.15;10.00;;;3.90;99.90;;;;;;5053206;28;20052;-69
2021/12/04 06:15:56;;;;;;;20.42;10.80;;;3.90;99.90;;;;;;5053144;28;20048;-69
2021/12/04 06:18:22;;;;;;;18.38;9.45;;;4.30;99.90;;;;;;5052943;28;20037;-69
2021/12/04 06:23:34;;;;;;;16.17;9.50;;;3.90;99.90;;;;;;5052927;28;20503;-68
2021/12/04 06:26:02;;;;;;;19.63;11.30;;;3.90;99.90;;;;;;5053020;28;20049;-69
2021/12/04 06:28:29;;;;;;;18.30;10.57;;;5.00;99.90;;;;;;5052850;28;20472;-70
2021/12/04 06:30:58;;;;;;;15.10;10.73;;;3.90;99.90;;;;;;5052855;28;20084;-69
2021/12/04 06:33:26;;;;;;;19.65;10.77;;;3.90;99.90;;;;;;5051503;28;20106;-70
2021/12/04 06:35:52;;;;;;;17.98;10.75;;;4.00;99.90;;;;;;5052957;28;20124;-68
2021/12/04 06:38:19;;;;;;;19.15;11.05;;;4.00;99.90;;;;;;5052979;28;20075;-69
2021/12/04 06:40:47;;;;;;;17.00;10.68;;;4.00;99.90;;;;;;5052715;28;20049;-70
2021/12/04 06:43:13;;;;;;;20.05;10.93;;;4.40;99.90;;;;;;5052687;28;20052;-69
2021/12/04 06:45:48;;;;;;;;;;;4.00;99.90;;;;;;5052942;28;20067;-70
2021/12/04 06:48:19;;;;;;;17.27;9.77;;;4.00;99.90;;;;;;5052786;28;19928;-70
2021/12/04 06:50:52;;;;;;;15.30;9.30;;;4.00;99.90;;;;;;5052526;28;20086;-69
2021/12/04 06:53:27;;;;;;;19.00;11.25;;;4.00;99.90;;;;;;5051783;28;20045;-70
2021/12/04 06:55:57;;;;;;;18.27;10.52;;;3.90;99.90;;;;;;5052511;28;20405;-68
2021/12/04 06:58:27;;;;;;;19.17;10.98;;;4.00;99.90;;;;;;5051529;28;20052;-70
2021/12/04 07:00:54;;;;;;;20.63;11.45;;;3.90;99.90;;;;;;5052800;28;20096;-70
2021/12/04 07:03:21;;;;;;;20.85;10.65;;;4.00;99.90;;;;;;5051740;28;20489;-69
2021/12/04 07:05:48;;;;;;;21.48;11.40;;;4.00;99.90;;;;;;5035322;28;20044;-69
2021/12/04 07:08:15;;;;;;;23.10;12.18;;;4.10;99.90;;;;;;5056119;28;20503;-68
2021/12/04 07:10:42;;;;;;;19.75;11.50;;;4.00;99.90;;;;;;5056194;28;20053;-70
2021/12/04 07:13:07;;;;;;;;;;;4.00;99.90;;;;;;5056375;28;20508;-71
2021/12/04 07:15:33;;;;;;;21.70;10.52;;;5.60;99.90;;;;;;5056136;28;19921;-69
2021/12/04 07:18:00;;;;;;;19.73;10.98;;;3.90;99.90;;;;;;5056136;28;20037;-69
2021/12/04 07:20:28;;;;;;;25.13;13.15;;;4.00;99.90;;;;;;5056043;28;20051;-68
2021/12/04 07:22:55;;;;;;;23.52;12.88;;;4.00;99.90;;;;;;5055078;28;20053;-68
2021/12/04 07:25:21;;;;;;;19.73;11.85;;;4.00;99.90;;;;;;5054897;28;20049;-69
2021/12/04 07:27:50;;;;;;;21.67;12.75;;;3.90;99.90;;;;;;5055693;28;20404;-71
2021/12/04 07:30:16;;;;;;;22.10;12.40;;;4.00;99.90;;;;;;5055955;28;20088;-70
2021/12/04 07:32:42;;;;;;;19.05;11.75;;;4.00;99.90;;;;;;5055863;28;20099;-70
2021/12/04 07:35:08;;;;;;;22.77;12.25;;;5.70;99.90;;;;;;5054632;28;20045;-69
2021/12/04 07:37:34;;;;;;;20.70;11.95;;;4.00;99.90;;;;;;5055705;28;20044;-69
2021/12/04 07:40:00;;;;;;;19.25;12.43;;;4.00;99.90;;;;;;5055583;28;20127;-69
2021/12/04 07:42:25;;;;;;;20.95;11.45;;;4.00;99.90;;;;;;5055431;28;20052;-69
2021/12/04 07:44:51;;;;;;;20.73;10.88;;;4.00;99.90;;;;;;5054343;28;20041;-68
2021/12/04 07:47:17;;;;;;;22.83;12.48;;;4.50;99.90;;;;;;5055563;28;20084;-69
2021/12/04 07:49:43;;;;;;;20.73;12.07;;;4.80;99.90;;;;;;5054183;28;20045;-69
2021/12/04 07:52:09;;;;;;;18.42;11.40;;;4.00;99.90;;;;;;5055460;28;20056;-70
2021/12/04 07:54:36;;;;;;;17.30;11.20;;;5.20;99.90;;;;;;5055261;28;20049;-69
2021/12/04 07:57:02;;;;;;;19.75;10.85;;;5.70;99.90;;;;;;5055209;28;20103;-69
2021/12/04 07:59:29;;;;;;;20.10;11.35;;;4.00;99.90;;;;;;5052882;28;20452;-70
2021/12/04 08:01:58;;;;;;;19.70;12.05;;;4.10;99.90;;;;;;5055147;28;20053;-68
2021/12/04 08:04:26;;;;;;;15.65;9.32;;;4.10;99.90;;;;;;5065162;28;20060;-67
2021/12/04 08:06:53;;;;;;;18.13;10.35;;;4.10;99.90;;;;;;5054723;28;20051;-69
2021/12/04 08:09:19;;;;;;;20.30;11.18;;;5.00;99.90;;;;;;5054669;28;20056;-68
2021/12/04 08:11:46;;;;;;;15.55;10.05;;;4.10;99.90;;;;;;5070811;28;20048;-69
2021/12/04 08:14:12;;;;;;;16.13;9.68;;;5.20;99.90;;;;;;5054812;28;20049;-68
2021/12/04 08:16:38;;;;;;;17.27;9.75;;;4.10;99.90;;;;;;5054695;28;20056;-68
2021/12/04 08:19:04;;;;;;;14.63;10.48;;;5.20;99.90;;;;;;5054713;28;20049;-69
2021/12/04 08:21:30;;;;;;;15.35;9.35;;;4.20;99.90;;;;;;5054912;28;20114;-69
2021/12/04 08:23:56;;;;;;;15.77;8.65;;;5.50;99.90;;;;;;5054667;28;20488;-70
2021/12/04 08:26:22;;;;;;;17.88;9.57;;;5.10;99.90;;;;;;5053650;28;20059;-69
2021/12/04 08:28:48;;;;;;;13.70;8.63;;;5.30;99.90;;;;;;5054520;28;20388;-70
2021/12/04 08:31:14;;;;;;;;;;;5.40;99.90;;;;;;5055108;28;20128;-70
2021/12/04 08:33:40;;;;;;;11.38;7.85;;;4.40;99.90;;;;;;5054711;28;20422;-70
2021/12/04 08:36:06;;;;;;;12.95;7.72;;;5.30;99.90;;;;;;5053431;28;20081;-69
2021/12/04 08:38:33;;;;;;;;;;;4.50;99.90;;;;;;5053983;28;20055;-71
2021/12/04 08:41:01;;;;;;;11.35;6.50;;;5.00;99.90;;;;;;5053129;28;19920;-69
2021/12/04 08:43:27;;;;;;;12.65;7.30;;;4.20;99.90;;;;;;5054243;28;20070;-69
2021/12/04 08:45:53;;;;;;;12.38;8.02;;;4.20;99.90;;;;;;5054521;28;20111;-69
2021/12/04 08:48:19;;;;;;;12.55;7.80;;;5.20;99.90;;;;;;5054304;28;20037;-69
2021/12/04 08:50:45;;;;;;;14.60;8.13;;;4.30;99.90;;;;;;5052838;28;20423;-73
2021/12/04 08:53:12;;;;;;;12.25;7.60;;;4.80;99.90;;;;;;5054116;28;20523;-68
2021/12/04 08:55:39;;;;;;;14.25;8.32;;;4.30;99.90;;;;;;5054058;28;20128;-69
2021/12/04 08:58:07;;;;;;;12.77;6.45;;;4.30;99.90;;;;;;5052985;28;20080;-69
2021/12/04 09:00:55;;;;;;;16.13;8.65;;;5.80;99.90;;;;;;5053778;28;20492;-69
2021/12/04 09:03:24;;;;;;;13.73;7.93;;;4.30;99.90;;;;;;5054101;28;20044;-69
2021/12/04 09:05:52;;;;;;;16.42;9.05;;;4.30;99.90;;;;;;5053015;28;20102;-70
2021/12/04 09:08:20;;;;;;;15.15;8.70;;;4.30;99.90;;;;;;5053780;28;20476;-69
2021/12/04 09:10:47;;;;;;;19.38;9.50;;;4.90;99.90;;;;;;5052599;28;20052;-69
2021/12/04 09:13:14;;;;;;;18.00;9.32;;;5.90;99.90;;;;;;5053927;28;20413;-69
2021/12/04 09:15:41;;;;;;;15.98;9.30;;;4.30;99.90;;;;;;5053791;28;20049;-70
2021/12/04 09:18:06;;;;;;;;;;;5.60;99.90;;;;;;5054274;28;20134;-69
2021/12/04 09:20:33;;;;;;;19.80;10.23;;;4.90;99.90;;;;;;5053771;28;19921;-69
2021/12/04 09:22:59;;;;;;;;;;;4.40;99.90;;;;;;5054578;28;20056;-70
2021/12/04 09:25:27;;;;;;;18.00;10.45;;;4.30;99.90;;;;;;5053397;28;20405;-70
2021/12/04 10:13:49;;;;;;;20.73;12.15;;;5.70;99.90;;;;;;5030807;28;20049;-69
2021/12/04 10:33:14;;;;;;;26.55;14.75;;;4.70;99.90;;;;;;5051974;28;20099;-69
2021/12/04 10:35:40;;;;;;;28.85;15.05;;;4.60;99.90;;;;;;5052855;28;20409;-70
2021/12/04 10:38:11;;;;;;;29.23;14.15;;;4.60;99.90;;;;;;5051613;28;20075;-70
2021/12/04 10:40:43;;;;;;;33.22;15.68;;;5.90;99.90;;;;;;5053296;28;20052;-69
2021/12/04 10:43:20;;;;;;;30.63;15.05;;;4.60;99.90;;;;;;5056503;28;20045;-70
2021/12/04 10:46:14;;;;;;;31.88;15.48;;;4.60;99.90;;;;;;5056630;28;20041;-70
2021/12/04 10:48:49;;;;;;;31.77;16.60;;;5.20;99.90;;;;;;5055206;28;20455;-70
2021/12/04 10:51:28;;;;;;;37.38;17.15;;;5.70;99.90;;;;;;5054929;28;20179;-68
2021/12/04 10:53:56;;;;;;;35.10;17.40;;;4.80;99.90;;;;;;5055212;28;20052;-71
2021/12/04 11:02:05;;;;;;;32.03;17.55;;;4.90;99.90;;;;;;5056294;28;20051;-69
2021/12/04 11:43:14;;;;;;;35.80;17.65;;;5.80;99.90;;;;;;5054450;28;20056;-67
2021/12/04 11:45:59;;;;;;;30.80;16.65;;;4.80;99.90;;;;;;5055162;28;20053;-69
2021/12/04 11:48:36;;;;;;;33.78;17.90;;;4.80;99.90;;;;;;5055149;28;20044;-68
2021/12/04 11:51:06;;;;;;;34.25;16.92;;;4.90;99.90;;;;;;5053869;28;20420;-68
2021/12/04 11:53:33;;;;;;;34.08;17.48;;;4.80;99.90;;;;;;5054424;28;20416;-69
2021/12/04 11:56:00;;;;;;;30.25;16.52;;;4.80;99.90;;;;;;5053812;28;20633;-68
2021/12/04 11:58:33;;;;;;;;;;;6.20;99.90;;;;;;5054550;28;20091;-69
2021/12/04 12:01:03;;;;;;;33.45;16.33;;;4.90;99.90;;;;;;5054841;28;20325;-69
2021/12/04 12:03:32;;;;;;;32.85;17.60;;;6.00;99.90;;;;;;5054115;28;20052;-71
2021/12/04 12:06:05;;;;;;;29.88;16.63;;;5.30;99.90;;;;;;5054914;28;20045;-71
2021/12/04 12:08:36;;;;;;;31.55;16.30;;;4.90;99.90;;;;;;5054778;28;20045;-72
2021/12/04 12:11:07;;;;;;;30.95;16.27;;;4.90;99.90;;;;;;5054034;28;20041;-69
2021/12/04 12:13:37;;;;;;;27.45;15.30;;;4.90;99.90;;;;;;5053766;28;20056;-69
2021/12/04 12:16:21;;;;;;;30.58;16.00;;;4.90;99.90;;;;;;5054811;28;20041;-69
2021/12/04 12:18:55;;;;;;;25.17;14.02;;;5.00;99.90;;;;;;5053932;28;20087;-68
2021/12/04 12:21:28;;;;;;;31.88;17.10;;;4.90;99.90;;;;;;5054836;28;20460;-69
2021/12/04 12:38:54;;;;;;;24.77;14.35;;;5.50;99.90;;;;;;5054441;28;20049;-68
2021/12/04 12:41:49;;;;;;;29.70;14.98;;;4.90;99.90;;;;;;5054443;28;20041;-69
2021/12/04 12:44:27;;;;;;;23.73;14.00;;;4.90;99.90;;;;;;5053629;28;20064;-70
2021/12/04 12:46:58;;;;;;;25.00;14.30;;;5.30;99.90;;;;;;5052922;28;20053;-69
2021/12/04 12:49:41;;;;;;;28.80;14.13;;;4.90;99.90;;;;;;5054042;28;20041;-69
2021/12/04 12:52:15;;;;;;;29.42;14.93;;;4.90;99.90;;;;;;5053918;28;20053;-69
2021/12/04 12:55:05;;;;;;;25.40;14.55;;;4.90;99.90;;;;;;5053900;28;20049;-69
2021/12/04 12:57:45;;;;;;;24.73;13.77;;;4.90;99.90;;;;;;5053944;28;20510;-69
2021/12/04 13:14:21;;;;;;;27.50;13.48;;;4.90;99.90;;;;;;5053747;28;20060;-69
2021/12/04 13:17:14;;;;;;;22.45;13.23;;;4.80;99.90;;;;;;5053529;28;20049;-70
2021/12/04 13:19:49;;;;;;;21.42;12.70;;;4.90;99.90;;;;;;5086372;28;20077;-68
2021/12/04 13:22:24;;;;;;;26.88;15.40;;;4.80;99.90;;;;;;5053460;28;20471;-69
2021/12/04 13:25:07;;;;;;;30.23;17.42;;;4.80;99.90;;;;;;5035649;28;20404;-69
2021/12/04 13:30:18;;;;;;;32.65;17.73;;;4.80;99.90;;;;;;5053533;28;20045;-68
2021/12/04 13:32:49;;;;;;;30.67;17.30;;;4.80;99.90;;;;;;5053450;28;20052;-70
2021/12/04 13:35:21;;;;;;;36.78;18.02;;;4.80;99.90;;;;;;5053327;28;20076;-69
2021/12/04 13:37:53;;;;;;;34.58;19.27;;;4.80;99.90;;;;;;5053546;28;20048;-68
2021/12/04 13:40:21;;;;;;;38.38;19.83;;;4.80;99.90;;;;;;5053347;28;20102;-69
2021/12/04 13:42:49;;;;;;;42.85;20.10;;;4.80;99.90;;;;;;5053399;28;20044;-70
2021/12/04 13:45:20;;;;;;;39.58;19.00;;;4.80;99.90;;;;;;5053169;28;20048;-68
2021/12/04 13:47:53;;;;;;;38.83;18.65;;;4.80;99.90;;;;;;5053133;28;20400;-70
2021/12/04 13:53:06;;;;;;;33.97;18.42;;;4.80;99.90;;;;;;5053293;28;20057;-68
2021/12/04 13:55:38;;;;;;;36.38;19.58;;;4.80;99.90;;;;;;5053041;28;20187;-70
2021/12/04 13:58:07;;;;;;;39.65;20.05;;;4.80;99.90;;;;;;5053090;28;20067;-70
2021/12/04 14:00:36;;;;;;;40.22;19.42;;;4.80;99.90;;;;;;5051980;28;20107;-69
2021/12/04 14:03:05;;;;;;;30.38;16.85;;;4.80;99.90;;;;;;5053296;28;20055;-69
2021/12/04 14:05:33;;;;;;;32.58;16.42;;;4.80;99.90;;;;;;5052884;28;20045;-69
2021/12/04 14:08:03;;;;;;;33.35;16.80;;;4.80;99.90;;;;;;5053076;28;20045;-69
2021/12/04 14:10:36;;;;;;;29.88;16.65;;;4.80;99.90;;;;;;5052736;28;20067;-68
2021/12/04 14:13:04;;;;;;;38.20;18.17;;;4.80;99.90;;;;;;5052895;28;20553;-69
2021/12/04 14:15:33;;;;;;;30.48;16.52;;;4.90;99.90;;;;;;5054093;28;20110;-71
2021/12/04 14:18:05;;;;;;;29.98;16.52;;;4.90;99.90;;;;;;5057213;28;20045;-68
2021/12/04 14:20:36;;;;;;;32.30;16.80;;;4.90;99.90;;;;;;5056896;28;20045;-70
2021/12/04 14:23:04;;;;;;;32.80;16.92;;;4.90;99.90;;;;;;5056113;28;20056;-69
2021/12/04 14:25:32;;;;;;;30.45;16.80;;;4.80;99.90;;;;;;5056724;28;20075;-70
2021/12/04 14:28:01;;;;;;;28.67;16.63;;;4.90;99.90;;;;;;5056611;28;20403;-69
2021/12/04 14:30:36;;;;;;;40.63;17.45;;;4.90;99.90;;;;;;5056639;28;20056;-71
2021/12/04 14:33:09;;;;;;;30.20;16.42;;;4.90;99.90;;;;;;5056800;28;20099;-71
2021/12/04 14:35:39;;;;;;;32.00;16.52;;;4.90;99.90;;;;;;5056795;28;20075;-68
2021/12/04 14:41:32;;;;;;;31.13;15.65;;;4.90;99.90;;;;;;5054186;28;20091;-69
2021/12/04 14:44:00;;;;;;;33.22;17.90;;;4.90;99.90;;;;;;5056482;28;20040;-69
2021/12/04 14:46:29;;;;;;;31.15;17.40;;;4.90;99.90;;;;;;5056539;28;20132;-69
2021/12/04 14:49:04;;;;;;;41.22;19.65;;;4.90;99.90;;;;;;5056343;28;20049;-70
2021/12/04 14:51:31;;;;;;;44.65;21.35;;;4.90;99.90;;;;;;5055205;28;20107;-72
2021/12/04 14:54:02;;;;;;;29.92;18.30;;;4.90;99.90;;;;;;5055400;28;20088;-70
2021/12/04 14:56:32;;;;;;;40.83;19.77;;;4.90;99.90;;;;;;5056267;28;20052;-70
2021/12/04 14:59:02;;;;;;;39.20;19.35;;;4.90;99.90;;;;;;5056406;28;20037;-70
2021/12/04 15:01:34;;;;;;;44.65;20.13;;;4.90;99.90;;;;;;5056011;28;20045;-70
2021/12/04 15:04:03;;;;;;;35.05;17.15;;;4.90;99.90;;;;;;5056059;28;20053;-69
2021/12/04 15:06:36;;;;;;;33.75;18.45;;;4.90;99.90;;;;;;5055171;28;20075;-70
2021/12/04 15:09:08;;;;;;;34.72;20.00;;;4.90;99.90;;;;;;5056161;28;20160;-69
2021/12/04 15:11:39;;;;;;;37.13;18.83;;;4.90;99.90;;;;;;5055952;28;20049;-69
2021/12/04 15:14:16;;;;;;;39.90;19.23;;;4.90;99.90;;;;;;5056085;28;20542;-68
2021/12/04 15:16:50;;;;;;;34.83;18.15;;;4.90;99.90;;;;;;5039954;28;20044;-69
2021/12/04 15:19:29;;;;;;;35.17;19.60;;;4.90;99.90;;;;;;5056086;28;20462;-69
2021/12/04 15:22:01;;;;;;;37.33;18.95;;;4.90;99.90;;;;;;5056035;28;20041;-69
2021/12/04 15:24:32;;;;;;;33.53;19.38;;;4.90;99.90;;;;;;5055825;28;20051;-70
2021/12/04 15:27:05;;;;;;;39.90;18.25;;;4.80;99.90;;;;;;5054723;28;20061;-70
2021/12/04 15:29:33;;;;;;;39.88;18.52;;;4.80;99.90;;;;;;5055950;28;20045;-70
2021/12/04 15:32:01;;;;;;;35.75;18.55;;;4.80;99.90;;;;;;5055827;28;20056;-69
2021/12/04 15:34:34;;;;;;;36.83;17.98;;;4.80;99.90;;;;;;5055811;28;20056;-69
2021/12/04 15:37:05;;;;;;;35.20;17.95;;;4.90;99.90;;;;;;5054591;28;20481;-71
2021/12/04 15:39:38;;;;;;;36.45;18.27;;;4.90;99.90;;;;;;5055509;28;20091;-71
2021/12/04 15:42:29;;;;;;;31.52;17.00;;;5.40;99.90;;;;;;5055619;28;20080;-69
2021/12/04 15:45:25;;;;;;;37.33;18.67;;;4.90;99.90;;;;;;5055470;28;20044;-69
2021/12/04 15:48:22;;;;;;;35.85;18.83;;;4.90;99.90;;;;;;5055329;28;20051;-69
2021/12/04 15:51:01;;;;;;;36.75;18.70;;;5.00;99.90;;;;;;5053722;28;20049;-69
2021/12/04 15:53:27;;;;;;;40.15;18.48;;;5.30;99.90;;;;;;5055327;28;20141;-68
2021/12/04 15:55:56;;;;;;;35.25;17.35;;;4.80;99.90;;;;;;5054152;28;20520;-70
2021/12/04 15:58:25;;;;;;;34.85;19.23;;;4.90;99.90;;;;;;5055186;28;20531;-70
2021/12/04 16:01:06;;;;;;;42.10;19.17;;;5.20;99.90;;;;;;5054455;28;20049;-70
2021/12/04 16:03:37;;;;;;;34.25;18.33;;;4.90;99.90;;;;;;5055010;28;20538;-69
2021/12/04 16:06:10;;;;;;;37.22;19.27;;;4.80;99.90;;;;;;5055171;28;20051;-69
2021/12/04 16:08:36;;;;;;;43.45;21.88;;;4.90;99.90;;;;;;5054538;28;20095;-71
2021/12/04 16:11:06;;;;;;;40.58;20.17;;;4.80;99.90;;;;;;5053761;28;20041;-68
2021/12/04 16:13:35;;;;;;;41.47;20.00;;;6.00;99.90;;;;;;5054026;28;20048;-70
2021/12/04 16:16:13;;;;;;;38.53;21.75;;;4.80;99.90;;;;;;5054886;28;20040;-69
2021/12/04 16:18:41;;;;;;;48.88;23.45;;;4.80;99.90;;;;;;5054933;28;20067;-70
2021/12/04 16:21:08;;;;;;;64.93;30.52;;;4.80;99.90;;;;;;5053741;28;20454;-69
2021/12/04 16:23:34;;;;;;;68.28;33.75;;;5.90;99.90;;;;;;5053713;28;20053;-74
2021/12/04 16:26:00;;;;;;;48.90;25.27;;;4.80;99.90;;;;;;5053796;28;20110;-69